Nevada, Iowa
Current Conditions -  °F | °C
As of 8:53 PM on Thursday 27 Nov 2014 (Local Time) from KAMW Reporting Station
Overcast Overcast  
Wind Chill: -2°   Ceiling: 9000
Heat Index: 10°   Visibility: 10mi
Dew Point:   Wind: 8mph
Humidity: 64%   Direction: 140°SE
Pressure: 30.34"   Gusts: NA
Location:  42.02°N, 93.45°W
Report Text: KAMW 280253Z AUTO 14007KT 10SM OVC090 M12/M18 A3034 RMK AO2 SLP293 T11221178 58022 $
Loading
Personal Weather Stations






























Interactive Weather Map New forecast layout! Learn more

10-Day Weather Forecast

Advertisements
Track Severe Weather on mobile